createdAt,value
2022-12-19T06:07:20.860Z,27.60
2022-12-19T06:09:56.720Z,28.70
2022-12-19T06:12:24.233Z,23.65
2022-12-19T06:14:51.734Z,20.48
2022-12-19T06:17:19.188Z,23.80
2022-12-19T06:19:46.415Z,23.33
2022-12-19T06:22:25.152Z,26.13
2022-12-19T06:24:57.090Z,25.40
2022-12-19T06:27:44.978Z,25.05
2022-12-19T06:30:15.201Z,24.08
2022-12-19T06:32:42.484Z,25.33
2022-12-19T06:35:28.744Z,22.77
2022-12-19T06:38:03.775Z,20.83
2022-12-19T06:41:03.873Z,23.30
2022-12-19T06:46:31.168Z,26.48
2022-12-19T06:48:58.603Z,20.20
2022-12-19T06:51:25.922Z,24.30
2022-12-19T06:53:52.874Z,21.33
2022-12-19T06:56:28.539Z,23.05
2022-12-19T06:58:56.003Z,22.52
2022-12-19T07:01:33.651Z,23.23
2022-12-19T07:04:01.247Z,25.50
2022-12-19T07:06:53.646Z,18.38
2022-12-19T07:09:22.139Z,20.63
2022-12-19T07:11:54.785Z,19.80
2022-12-19T07:14:29.643Z,18.25
2022-12-19T07:16:59.065Z,16.42
2022-12-19T07:19:27.507Z,19.83
2022-12-19T07:22:02.328Z,15.00
2022-12-19T07:24:35.941Z,21.00
2022-12-19T07:27:03.860Z,15.02
2022-12-19T07:29:31.161Z,18.25
2022-12-19T07:31:58.707Z,20.23
2022-12-19T07:34:41.099Z,19.92
2022-12-19T07:37:08.333Z,15.70
2022-12-19T07:39:42.477Z,16.10
2022-12-19T07:42:17.853Z,18.70
2022-12-19T07:44:45.207Z,15.88
2022-12-19T07:47:13.267Z,13.38
2022-12-19T07:49:54.395Z,17.08
2022-12-19T07:52:23.900Z,18.52
2022-12-19T07:54:52.874Z,15.73
2022-12-19T07:57:21.073Z,15.18
2022-12-19T07:59:48.464Z,17.73
2022-12-19T08:02:15.760Z,17.70
2022-12-19T08:04:43.349Z,17.95
2022-12-19T08:07:10.790Z,14.50
2022-12-19T08:09:38.106Z,15.98
2022-12-19T08:12:17.776Z,14.90
2022-12-19T08:14:51.584Z,16.50
2022-12-19T08:17:28.956Z,18.33
2022-12-19T08:20:08.647Z,14.18
2022-12-19T08:22:42.571Z,16.37
2022-12-19T08:25:20.563Z,16.35
2022-12-19T08:27:48.056Z,21.55
2022-12-19T08:30:15.513Z,16.45
2022-12-19T08:32:43.529Z,17.67
2022-12-19T08:35:10.946Z,18.73
2022-12-19T08:37:39.467Z,17.98
2022-12-19T08:40:08.152Z,16.02
2022-12-19T08:42:42.134Z,15.65
2022-12-19T08:45:11.021Z,15.73
2022-12-19T08:47:38.392Z,20.40
2022-12-19T08:50:05.872Z,18.33
2022-12-19T08:52:36.827Z,15.85
2022-12-19T08:55:05.927Z,16.33
2022-12-19T08:57:42.758Z,13.90
2022-12-19T09:00:10.882Z,15.57
2022-12-19T09:02:46.037Z,15.60
2022-12-19T09:06:04.371Z,15.70
2022-12-19T09:08:01.123Z,16.58
2022-12-19T09:10:28.560Z,16.88
2022-12-19T09:12:57.984Z,17.58
2022-12-19T09:15:25.515Z,14.75
2022-12-19T09:17:53.030Z,15.40
2022-12-19T09:20:26.037Z,14.45
2022-12-19T09:22:53.456Z,16.57
2022-12-19T09:28:26.004Z,15.90
2022-12-19T09:30:46.777Z,15.03
2022-12-19T09:33:13.989Z,15.75
2022-12-19T09:35:46.774Z,13.57
2022-12-19T09:38:14.147Z,17.23
2022-12-19T09:40:54.162Z,13.95
2022-12-19T09:43:41.123Z,18.55
2022-12-19T09:46:17.169Z,12.95
2022-12-19T09:48:55.184Z,18.35
2022-12-19T09:51:30.900Z,14.05
2022-12-19T09:54:18.694Z,13.00
2022-12-19T09:56:47.032Z,12.82
2022-12-19T09:59:50.740Z,14.77
2022-12-19T10:02:41.278Z,14.68
2022-12-19T10:06:51.802Z,13.65
2022-12-19T10:08:23.380Z,15.40
2022-12-19T10:12:37.902Z,16.00
2022-12-19T10:14:23.635Z,15.25
2022-12-19T10:17:25.467Z,14.25
2022-12-19T10:20:21.990Z,14.13
2022-12-19T10:23:08.733Z,13.65
2022-12-19T10:25:55.858Z,11.68
2022-12-19T10:28:26.191Z,17.73
2022-12-19T10:31:25.080Z,11.65
2022-12-19T10:34:07.377Z,11.40
2022-12-19T10:37:13.014Z,16.10
2022-12-19T10:39:31.279Z,13.52
2022-12-19T10:42:03.180Z,12.05
2022-12-19T10:44:38.401Z,11.27
2022-12-19T10:47:17.131Z,11.15
2022-12-19T10:49:51.835Z,11.18
2022-12-19T10:53:03.092Z,14.40
2022-12-19T10:55:47.156Z,9.90
2022-12-19T10:58:32.389Z,14.77
2022-12-19T11:01:05.349Z,12.50
2022-12-19T11:03:43.108Z,13.63
2022-12-19T11:06:35.320Z,9.93
2022-12-19T11:09:22.703Z,11.55
2022-12-19T11:15:27.064Z,13.50
2022-12-19T11:27:03.835Z,11.50
